EDXW/GWT METAR and TAF weather

Enter ICAO airport designator
Station Type Date Time Source
EDXW METAR 2019/10/16 16:50 UTC NOAA

EDXW 161650Z 20009KT CAVOK 11/10 Q1006


Station Type Date Time Source
EDXW Decoded METAR 2019/10/16 16:50 UTC NOAA

Westerland / Sylt, Germany (EDXW) 54-55N 008-21E 20M
Oct 16, 2019 - 12:50 PM EDT / 2019.10.16 1650 UTC
Wind: from the SSW (200 degrees) at 10 MPH (9 KT):0
Visibility: greater than 7 mile(s):0
Temperature: 51 F (11 C)
Dew Point: 50 F (10 C)
Relative Humidity: 93%
Pressure (altimeter): 29.71 in. Hg (1006 hPa)
ob: EDXW 161650Z 20009KT CAVOK 11/10 Q1006
cycle: 17

Station Type Date Time Source
EDXW TAF 2009/07/07 14:00 UTC NOAA

TAF EDXW 071400Z 0715/0719 22015G25KT 9999 SCT020

Example: see airport list